METAR Data
IDs: Format: Raw Decoded Include TAF

Data at: 0243 UTC 25 Feb 2021

EGPD 250220Z AUTO 23016G26KT 9999 NCD 07/M01 Q1009 NOSIG